Time;durP1;ratioP1;P1;durP2;ratioP2;P2;SDS_P1;SDS_P2;PMS_P1;PMS_P2;Temp;Humidity;BMP_temperature;BMP_pressure;BME280_temperature;BME280_humidity;BME280_pressure;Samples;Min_cycle;Max_cycle;Signal;HPM_P1;HPM_P2
2021/04/15 00:02:26;;;;;;;41.60;30.67;;;24.10;90.70;;;;;;6101878;23;20547;-44
2021/04/15 00:04:52;;;;;;;37.03;30.33;;;24.10;90.80;;;;;;6102141;23;20792;-46
2021/04/15 00:07:19;;;;;;;41.17;30.53;;;24.10;90.70;;;;;;6100970;23;20460;-44
2021/04/15 00:09:46;;;;;;;50.20;31.50;;;24.10;90.70;;;;;;6098681;23;20482;-43
2021/04/15 00:12:13;;;;;;;43.90;30.30;;;24.10;90.70;;;;;;6104253;23;20960;-44
2021/04/15 00:14:39;;;;;;;33.23;29.20;;;24.10;90.70;;;;;;6103394;23;20480;-44
2021/04/15 00:17:06;;;;;;;38.53;30.63;;;24.10;90.70;;;;;;6103957;23;20443;-45
2021/04/15 00:19:33;;;;;;;37.10;29.40;;;24.10;90.70;;;;;;6101788;23;20452;-45
2021/04/15 00:21:59;;;;;;;42.00;30.20;;;24.10;90.70;;;;;;6101749;23;20777;-44
2021/04/15 00:24:26;;;;;;;40.87;29.37;;;24.10;90.70;;;;;;6102592;23;20465;-45
2021/04/15 00:26:54;;;;;;;36.50;29.60;;;24.10;90.70;;;;;;6075037;23;20455;-44
2021/04/15 00:29:20;;;;;;;41.23;30.47;;;24.10;90.70;;;;;;6102468;23;20457;-44
2021/04/15 00:31:47;;;;;;;33.90;29.60;;;24.10;90.70;;;;;;6103973;23;20445;-44
2021/04/15 00:34:13;;;;;;;37.93;29.40;;;24.10;90.70;;;;;;6103903;23;20449;-44
2021/04/15 00:36:43;;;;;;;37.07;28.60;;;24.10;90.70;;;;;;6078425;23;20448;-44
2021/04/15 00:39:10;;;;;;;37.77;30.53;;;24.10;90.70;;;;;;6101863;23;20709;-45
2021/04/15 00:41:37;;;;;;;38.10;30.00;;;24.10;90.70;;;;;;6102351;23;20536;-44
2021/04/15 00:44:05;;;;;;;35.23;29.50;;;24.10;90.60;;;;;;6101924;23;20447;-43
2021/04/15 00:46:46;;;;;;;39.90;29.07;;;24.10;90.60;;;;;;6103923;23;20489;-44
2021/04/15 00:49:18;;;;;;;34.03;27.87;;;24.10;90.60;;;;;;6102987;23;20492;-44
2021/04/15 00:51:48;;;;;;;34.53;28.30;;;24.10;90.60;;;;;;6103106;23;20455;-44
2021/04/15 00:54:31;;;;;;;34.30;28.70;;;24.10;90.60;;;;;;6101618;23;20448;-44
2021/04/15 00:56:59;;;;;;;36.90;28.57;;;24.10;90.60;;;;;;6104501;23;20501;-44
2021/04/15 00:59:27;;;;;;;37.40;27.97;;;24.10;90.60;;;;;;6102217;23;20450;-45
2021/04/15 01:01:54;;;;;;;37.93;28.00;;;24.20;90.70;;;;;;6102412;23;20526;-44
2021/04/15 01:04:22;;;;;;;30.97;27.67;;;24.10;90.60;;;;;;6103611;23;20457;-44
2021/04/15 01:06:50;;;;;;;33.40;29.27;;;24.20;90.60;;;;;;6104084;23;20444;-45
2021/04/15 01:09:18;;;;;;;36.00;28.27;;;24.10;90.60;;;;;;6102578;23;20516;-45
2021/04/15 01:11:57;;;;;;;36.90;27.67;;;24.20;90.60;;;;;;6103372;23;20457;-45
2021/04/15 01:14:37;;;;;;;30.77;26.10;;;24.10;90.60;;;;;;6101798;23;21018;-44
2021/04/15 01:17:07;;;;;;;36.47;27.60;;;24.20;90.60;;;;;;6101828;23;20463;-43
2021/04/15 01:20:13;;;;;;;34.67;27.80;;;24.10;90.50;;;;;;6101440;23;20675;-45
2021/04/15 01:22:49;;;;;;;31.67;28.37;;;24.20;90.60;;;;;;6102941;23;20461;-44
2021/04/15 01:25:29;;;;;;;33.13;27.90;;;24.20;90.60;;;;;;6100966;23;20508;-44
2021/04/15 01:28:03;;;;;;;31.93;27.80;;;24.20;90.60;;;;;;6105030;23;20543;-44
2021/04/15 01:30:33;;;;;;;37.73;29.30;;;24.20;90.50;;;;;;6103057;23;20455;-44
2021/04/15 01:33:11;;;;;;;33.13;29.20;;;24.20;90.50;;;;;;6101889;23;20448;-44
2021/04/15 01:35:44;;;;;;;30.20;25.90;;;24.20;90.50;;;;;;6104632;23;20643;-43
2021/04/15 01:38:14;;;;;;;31.80;26.90;;;24.20;90.50;;;;;;6103333;23;20461;-45
2021/04/15 01:40:46;;;;;;;33.50;26.93;;;24.20;90.50;;;;;;6103089;23;20467;-44
2021/04/15 01:43:16;;;;;;;30.47;26.40;;;24.20;90.50;;;;;;6101667;23;20459;-44
2021/04/15 01:45:46;;;;;;;32.53;27.30;;;24.20;90.50;;;;;;6101793;23;20475;-46
2021/04/15 01:48:16;;;;;;;32.37;27.30;;;24.20;90.50;;;;;;6103217;23;20542;-44
2021/04/15 01:50:46;;;;;;;27.80;24.90;;;24.20;90.50;;;;;;6103170;23;20679;-44
2021/04/15 01:53:16;;;;;;;33.73;27.30;;;24.20;90.50;;;;;;6104118;23;20450;-44
2021/04/15 01:55:49;;;;;;;32.20;26.30;;;24.20;90.50;;;;;;6103551;23;20437;-44
2021/04/15 01:58:22;;;;;;;32.97;27.80;;;24.20;90.50;;;;;;6101990;23;20458;-44
2021/04/15 02:00:56;;;;;;;33.50;27.33;;;24.20;90.50;;;;;;6103352;23;20451;-44
2021/04/15 02:03:27;;;;;;;30.80;27.27;;;24.20;90.40;;;;;;6103371;23;20760;-44
2021/04/15 02:05:58;;;;;;;29.77;26.57;;;24.20;90.50;;;;;;6100653;23;20456;-45
2021/04/15 02:08:27;;;;;;;31.80;26.47;;;24.20;90.50;;;;;;6103269;23;20577;-44
2021/04/15 02:11:00;;;;;;;31.90;27.20;;;24.20;90.50;;;;;;6102444;23;20647;-45
2021/04/15 02:13:28;;;;;;;34.00;27.73;;;24.20;90.50;;;;;;6099961;23;20459;-44
2021/04/15 02:15:59;;;;;;;30.03;26.77;;;24.20;90.50;;;;;;6100191;23;20572;-44
2021/04/15 02:18:31;;;;;;;29.37;26.40;;;24.20;90.50;;;;;;6100666;23;20443;-47
2021/04/15 02:21:04;;;;;;;35.30;27.83;;;24.20;90.50;;;;;;6100385;23;20811;-44
2021/04/15 02:23:34;;;;;;;29.40;26.43;;;24.20;90.40;;;;;;6102414;23;20461;-45
2021/04/15 02:26:05;;;;;;;28.87;24.50;;;24.20;90.40;;;;;;6074863;23;20925;-43
2021/04/15 02:28:40;;;;;;;31.67;27.00;;;24.20;90.40;;;;;;6101812;23;20470;-43
2021/04/15 02:31:13;;;;;;;30.40;27.40;;;24.20;90.40;;;;;;6100242;23;20482;-43
2021/04/15 02:33:44;;;;;;;28.63;25.67;;;24.20;90.40;;;;;;6101283;23;20459;-44
2021/04/15 02:36:12;;;;;;;30.53;26.47;;;24.20;90.40;;;;;;6101538;23;20523;-44
2021/04/15 02:38:47;;;;;;;29.33;26.33;;;24.20;90.40;;;;;;6102122;23;20453;-44
2021/04/15 02:41:17;;;;;;;28.67;24.63;;;24.20;90.40;;;;;;6076466;23;20716;-45
2021/04/15 02:43:48;;;;;;;27.93;25.10;;;24.20;90.40;;;;;;6102433;23;20870;-45
2021/04/15 02:46:21;;;;;;;28.80;25.73;;;24.20;90.40;;;;;;6102070;23;20503;-46
2021/04/15 02:48:49;;;;;;;28.67;25.60;;;24.20;90.40;;;;;;6102025;23;20452;-44
2021/04/15 02:51:22;;;;;;;27.80;25.00;;;24.20;90.40;;;;;;6102316;23;20853;-45
2021/04/15 02:53:55;;;;;;;33.07;26.60;;;24.20;90.40;;;;;;6105059;23;20609;-43
2021/04/15 02:56:26;;;;;;;27.90;25.10;;;24.20;90.40;;;;;;6106476;23;20539;-43
2021/04/15 02:59:01;;;;;;;28.60;25.57;;;24.20;90.40;;;;;;6104284;23;20502;-44
2021/04/15 03:01:31;;;;;;;29.57;26.57;;;24.20;90.40;;;;;;6103301;23;20444;-45
2021/04/15 03:04:00;;;;;;;28.27;25.63;;;24.20;90.40;;;;;;6104195;23;20447;-47
2021/04/15 03:06:31;;;;;;;29.63;26.40;;;24.20;90.40;;;;;;6103003;23;20511;-48
2021/04/15 03:09:02;;;;;;;30.80;27.23;;;24.20;90.30;;;;;;6075059;23;20738;-43
2021/04/15 03:11:35;;;;;;;34.13;26.57;;;24.20;90.30;;;;;;6102084;23;20464;-46
2021/04/15 03:14:09;;;;;;;32.23;25.80;;;24.20;90.30;;;;;;6103136;23;20440;-45
2021/04/15 03:16:40;;;;;;;28.87;25.97;;;24.20;90.30;;;;;;6100259;23;20643;-44
2021/04/15 03:19:13;;;;;;;29.43;26.40;;;24.20;90.30;;;;;;6103059;23;20473;-46
2021/04/15 03:21:46;;;;;;;30.17;27.17;;;24.30;90.30;;;;;;6076118;23;20725;-45
2021/04/15 03:24:17;;;;;;;27.97;25.00;;;24.30;90.30;;;;;;6103896;23;20546;-46
2021/04/15 03:26:48;;;;;;;28.40;25.70;;;24.20;90.30;;;;;;6098638;23;20476;-47
2021/04/15 03:29:23;;;;;;;29.17;26.00;;;24.20;90.30;;;;;;6103416;23;20468;-45
2021/04/15 03:32:02;;;;;;;28.10;25.43;;;24.30;90.30;;;;;;6103540;23;20857;-46
2021/04/15 03:34:35;;;;;;;29.80;25.17;;;24.30;90.30;;;;;;6104505;23;20447;-45
2021/04/15 03:37:03;;;;;;;26.60;24.00;;;24.30;90.30;;;;;;6104355;23;20713;-44
2021/04/15 03:39:34;;;;;;;27.73;25.10;;;24.30;90.30;;;;;;6105387;23;20459;-46
2021/04/15 03:42:09;;;;;;;28.00;25.40;;;24.30;90.30;;;;;;6103807;23;20465;-45
2021/04/15 03:44:41;;;;;;;28.40;25.57;;;24.30;90.30;;;;;;6102487;23;20803;-43
2021/04/15 03:47:14;;;;;;;26.50;24.00;;;24.30;90.20;;;;;;6105299;23;20444;-47
2021/04/15 03:49:45;;;;;;;29.03;26.20;;;24.30;90.20;;;;;;6105372;23;20454;-45
2021/04/15 03:52:17;;;;;;;27.70;25.00;;;24.30;90.20;;;;;;6106035;23;20831;-44
2021/04/15 03:54:48;;;;;;;28.43;25.87;;;24.30;90.20;;;;;;6105084;23;20777;-44
2021/04/15 03:57:19;;;;;;;28.93;25.83;;;24.40;90.20;;;;;;6104268;23;20554;-45
2021/04/15 03:59:51;;;;;;;29.40;26.37;;;24.40;90.20;;;;;;6103501;23;20449;-45
2021/04/15 04:02:24;;;;;;;27.17;24.77;;;24.40;90.20;;;;;;6104036;23;20547;-44
2021/04/15 04:04:54;;;;;;;27.10;24.40;;;24.40;90.10;;;;;;6103108;23;20783;-45
2021/04/15 04:07:25;;;;;;;29.23;26.30;;;24.40;90.10;;;;;;6102250;23;20523;-46
2021/04/15 04:09:57;;;;;;;28.67;26.07;;;24.40;90.10;;;;;;6101519;23;20459;-43
2021/04/15 04:12:29;;;;;;;28.37;25.67;;;24.50;90.10;;;;;;6100936;23;20471;-45
2021/04/15 04:15:01;;;;;;;28.40;25.60;;;24.50;90.10;;;;;;6101364;23;20455;-46
2021/04/15 04:17:35;;;;;;;28.40;25.70;;;24.50;90.00;;;;;;6102278;23;20451;-46
2021/04/15 04:20:02;;;;;;;28.60;26.07;;;24.50;90.00;;;;;;6102374;23;20444;-45
2021/04/15 04:22:39;;;;;;;28.93;26.30;;;24.60;90.00;;;;;;6054285;23;20450;-43
2021/04/15 04:25:12;;;;;;;29.83;26.87;;;24.50;90.00;;;;;;6102342;23;20449;-46
2021/04/15 04:27:44;;;;;;;28.73;26.13;;;24.60;90.00;;;;;;6102296;23;20464;-44
2021/04/15 04:30:14;;;;;;;28.30;25.57;;;24.60;90.00;;;;;;6100612;23;20545;-44
2021/04/15 04:32:43;;;;;;;27.97;25.33;;;24.60;89.90;;;;;;6101520;23;20469;-44
2021/04/15 04:35:13;;;;;;;28.77;25.97;;;24.60;89.90;;;;;;6100432;23;20485;-45
2021/04/15 04:37:43;;;;;;;27.00;24.63;;;24.60;89.90;;;;;;6099188;23;20456;-45
2021/04/15 04:40:15;;;;;;;27.97;25.47;;;24.60;89.80;;;;;;6099188;23;20907;-46
2021/04/15 04:42:45;;;;;;;27.07;24.47;;;24.60;89.80;;;;;;6099496;23;21093;-43
2021/04/15 04:45:14;;;;;;;27.93;25.03;;;24.60;89.80;;;;;;6098021;23;20594;-45
2021/04/15 04:47:47;;;;;;;27.10;24.40;;;24.60;89.70;;;;;;6049065;23;20449;-45
2021/04/15 04:50:27;;;;;;;27.27;24.60;;;24.70;89.80;;;;;;6097691;23;20455;-45
2021/04/15 04:52:58;;;;;;;27.60;25.00;;;24.70;89.70;;;;;;6096912;23;20444;-44
2021/04/15 04:55:32;;;;;;;25.37;23.17;;;24.70;89.60;;;;;;6096518;23;20444;-45
2021/04/15 04:57:59;;;;;;;28.37;25.67;;;24.70;89.70;;;;;;6097655;23;20539;-45
2021/04/15 05:00:27;;;;;;;25.07;22.80;;;24.70;89.60;;;;;;6094264;23;20451;-45
2021/04/15 05:02:57;;;;;;;25.90;23.40;;;24.80;89.60;;;;;;6096908;23;20695;-45
2021/04/15 05:05:26;;;;;;;27.87;25.00;;;24.80;89.60;;;;;;6097587;23;20467;-44
2021/04/15 05:08:04;;;;;;;26.53;24.20;;;24.80;89.50;;;;;;6091035;23;20452;-44
2021/04/15 05:10:31;;;;;;;26.70;24.20;;;24.80;89.40;;;;;;6068674;23;20451;-45
2021/04/15 05:13:08;;;;;;;24.83;22.67;;;24.80;89.40;;;;;;6091333;23;20448;-44
2021/04/15 05:15:35;;;;;;;26.07;23.67;;;24.80;89.30;;;;;;6091333;23;20449;-45
2021/04/15 05:18:02;;;;;;;27.40;24.80;;;24.90;89.40;;;;;;6092476;23;20446;-44
2021/04/15 05:20:30;;;;;;;26.20;23.77;;;24.80;89.20;;;;;;6092790;23;20851;-44
2021/04/15 05:23:01;;;;;;;27.37;24.57;;;24.80;89.20;;;;;;6067928;23;21098;-45
2021/04/15 05:25:35;;;;;;;26.03;23.53;;;24.80;89.20;;;;;;6091081;23;20522;-45
2021/04/15 05:28:20;;;;;;;26.03;23.33;;;24.80;89.10;;;;;;6092345;23;20557;-44
2021/04/15 05:30:52;;;;;;;23.90;21.80;;;24.90;89.20;;;;;;6088390;23;20478;-44
2021/04/15 05:33:22;;;;;;;25.40;23.00;;;24.80;89.10;;;;;;6088997;23;20458;-47
2021/04/15 05:35:54;;;;;;;24.27;22.20;;;24.80;89.10;;;;;;6088494;23;20447;-44
2021/04/15 05:38:22;;;;;;;24.60;22.50;;;24.80;89.10;;;;;;6087564;23;21283;-44
2021/04/15 05:40:50;;;;;;;25.30;23.30;;;24.80;89.20;;;;;;6051509;23;20452;-45
2021/04/15 05:43:30;;;;;;;25.50;23.03;;;24.80;89.20;;;;;;6084063;23;20864;-44
2021/04/15 05:46:10;;;;;;;26.40;23.60;;;24.80;89.30;;;;;;6081911;23;20831;-45
2021/04/15 05:48:39;;;;;;;26.63;24.33;;;24.80;89.30;;;;;;6089728;23;20612;-43
2021/04/15 05:51:12;;;;;;;25.37;23.07;;;24.80;89.40;;;;;;6087130;23;20548;-44
2021/04/15 05:53:41;;;;;;;25.87;23.37;;;24.80;89.50;;;;;;6088755;23;20455;-44
2021/04/15 05:56:12;;;;;;;24.43;22.13;;;24.80;89.60;;;;;;6084529;23;20458;-44
2021/04/15 05:58:46;;;;;;;25.90;22.13;;;24.80;89.70;;;;;;6084288;23;20547;-43
2021/04/15 06:01:17;;;;;;;25.30;22.90;;;24.80;89.80;;;;;;6084654;23;20465;-43
2021/04/15 06:03:54;;;;;;;25.33;22.97;;;24.80;89.90;;;;;;6081390;23;20455;-43
2021/04/15 06:06:26;;;;;;;26.80;23.70;;;24.80;90.00;;;;;;6081176;23;20466;-43
2021/04/15 06:08:54;;;;;;;25.00;22.63;;;24.90;90.00;;;;;;6084508;23;20564;-42
2021/04/15 06:11:46;;;;;;;32.00;22.37;;;24.80;90.00;;;;;;6078837;23;21384;-43
2021/04/15 06:14:20;;;;;;;19.57;18.47;;;24.80;90.00;;;;;;6077015;23;21141;-42
2021/04/15 06:16:55;;;;;;;20.17;19.07;;;24.60;57.50;;;;;;6070800;23;20766;-42
2021/04/15 06:19:24;;;;;;;21.30;19.83;;;24.00;51.40;;;;;;6068080;23;20721;-42
2021/04/15 06:22:01;;;;;;;20.33;18.83;;;23.30;52.40;;;;;;6068865;23;20583;-42
2021/04/15 06:24:30;;;;;;;19.77;18.47;;;23.10;64.00;;;;;;6069042;23;20796;-42
2021/04/15 06:27:00;;;;;;;19.67;18.40;;;23.10;72.90;;;;;;6071775;23;21070;-43
2021/04/15 06:29:33;;;;;;;19.50;17.97;;;23.20;76.20;;;;;;6063519;23;20675;-44
2021/04/15 06:32:03;;;;;;;19.30;18.00;;;23.30;77.50;;;;;;6056770;23;20810;-41
2021/04/15 06:34:31;;;;;;;18.40;17.07;;;23.50;78.40;;;;;;6049096;23;20473;-43
2021/04/15 06:37:04;;;;;;;17.90;16.70;;;23.60;79.00;;;;;;6063611;23;20453;-42
2021/04/15 06:39:34;;;;;;;17.30;16.17;;;23.70;79.30;;;;;;6067345;23;20468;-44
2021/04/15 06:42:20;;;;;;;17.73;16.57;;;23.80;79.60;;;;;;6063895;23;20500;-42
2021/04/15 06:45:02;;;;;;;18.23;16.90;;;23.90;79.90;;;;;;6065716;23;20484;-41
2021/04/15 06:48:06;;;;;;;18.07;16.87;;;24.00;80.10;;;;;;6067031;23;20666;-42
2021/04/15 06:50:41;;;;;;;17.70;16.20;;;24.10;80.20;;;;;;5954652;24;20675;-42
2021/04/15 06:53:30;;;;;;;17.10;16.00;;;24.20;80.30;;;;;;6047487;23;20487;-42
2021/04/15 06:56:12;;;;;;;17.07;16.03;;;24.20;80.40;;;;;;6066339;23;20827;-42
2021/04/15 06:59:00;;;;;;;18.00;16.80;;;24.30;80.70;;;;;;6069921;23;20683;-42
2021/04/15 07:01:39;;;;;;;17.67;16.67;;;24.40;80.70;;;;;;6067914;23;20749;-42
2021/04/15 07:04:11;;;;;;;17.00;15.80;;;24.40;80.60;;;;;;6069312;23;21224;-42
2021/04/15 07:06:55;;;;;;;15.83;14.93;;;24.40;80.70;;;;;;6068737;23;20790;-44
2021/04/15 07:09:58;;;;;;;17.13;16.13;;;24.50;81.00;;;;;;6071157;23;20483;-43
2021/04/15 07:13:11;;;;;;;17.73;16.40;;;24.50;81.10;;;;;;6070209;23;20461;-42
2021/04/15 07:15:49;;;;;;;17.63;16.23;;;24.50;81.20;;;;;;6065743;23;20485;-42
2021/04/15 07:18:39;;;;;;;16.70;15.50;;;24.50;81.30;;;;;;6069192;23;20974;-43
2021/04/15 07:21:42;;;;;;;16.27;15.37;;;24.50;81.50;;;;;;6072863;23;20609;-42
2021/04/15 07:24:37;;;;;;;18.53;16.80;;;24.60;81.70;;;;;;6004944;23;20639;-42
2021/04/15 07:27:30;;;;;;;16.80;15.90;;;24.60;82.00;;;;;;6069608;23;20752;-42
2021/04/15 07:30:26;;;;;;;17.00;16.00;;;24.60;82.10;;;;;;6048716;23;20543;-42
2021/04/15 07:33:23;;;;;;;17.77;16.40;;;24.60;82.20;;;;;;6071817;23;20758;-42
2021/04/15 07:36:40;;;;;;;17.83;16.50;;;24.60;82.40;;;;;;6061058;23;20652;-43
2021/04/15 07:39:22;;;;;;;19.17;17.27;;;24.60;82.50;;;;;;6001171;23;20514;-42
2021/04/15 07:42:08;;;;;;;18.20;16.83;;;24.60;82.60;;;;;;6072294;23;20726;-43
2021/04/15 07:44:39;;;;;;;17.07;16.17;;;24.60;82.70;;;;;;6065136;23;20674;-43
2021/04/15 07:47:42;;;;;;;18.57;17.33;;;24.60;82.90;;;;;;6066184;23;20440;-42
2021/04/15 07:50:39;;;;;;;18.83;17.53;;;24.60;83.00;;;;;;6063526;23;20440;-42
2021/04/15 07:53:23;;;;;;;18.33;16.97;;;24.60;83.10;;;;;;6065863;23;20834;-42
2021/04/15 07:56:23;;;;;;;17.83;16.50;;;24.60;83.20;;;;;;6061833;23;20456;-42
2021/04/15 07:59:08;;;;;;;17.00;16.07;;;24.60;83.30;;;;;;6063688;23;20472;-42
2021/04/15 08:01:53;;;;;;;17.80;16.80;;;24.50;83.20;;;;;;6038561;23;20589;-42
2021/04/15 08:05:04;;;;;;;17.10;16.17;;;24.60;83.50;;;;;;6064952;23;20473;-43
2021/04/15 08:07:49;;;;;;;17.73;16.83;;;24.50;83.40;;;;;;6048518;23;20676;-44
2021/04/15 08:10:49;;;;;;;19.63;18.40;;;24.60;84.30;;;;;;6063956;23;21064;-42
2021/04/15 08:13:45;;;;;;;17.30;16.30;;;24.50;83.60;;;;;;6067996;23;20640;-41
2021/04/15 08:16:35;;;;;;;17.13;16.30;;;24.60;83.60;;;;;;6041249;23;20714;-43
2021/04/15 08:19:20;;;;;;;17.47;16.50;;;24.60;83.70;;;;;;6065716;23;20953;-42
2021/04/15 08:21:54;;;;;;;16.07;15.27;;;24.50;83.60;;;;;;6066846;23;20585;-42
2021/04/15 08:24:49;;;;;;;17.00;15.90;;;24.50;83.70;;;;;;6068168;23;21007;-42
2021/04/15 08:27:55;;;;;;;16.27;15.17;;;24.50;83.80;;;;;;6062526;23;20590;-41
2021/04/15 08:31:04;;;;;;;16.70;15.90;;;24.50;83.80;;;;;;6062922;23;21207;-42
2021/04/15 08:33:52;;;;;;;17.47;16.57;;;24.50;83.80;;;;;;6060791;23;20511;-43
2021/04/15 08:36:51;;;;;;;17.47;16.57;;;24.60;83.80;;;;;;6061120;23;20471;-43
2021/04/15 08:39:40;;;;;;;17.20;16.20;;;24.60;83.90;;;;;;6035375;23;20444;-43
2021/04/15 08:42:20;;;;;;;16.60;15.77;;;24.50;83.80;;;;;;6071984;23;20465;-44
2021/04/15 08:44:55;;;;;;;17.80;16.60;;;24.60;84.00;;;;;;6069692;23;20507;-43
2021/04/15 08:47:38;;;;;;;16.90;15.70;;;24.50;83.80;;;;;;6061456;23;20458;-43
2021/04/15 08:50:13;;;;;;;18.03;16.97;;;24.50;83.70;;;;;;6075330;23;20448;-43
2021/04/15 08:52:44;;;;;;;16.63;15.70;;;24.50;83.70;;;;;;6076739;23;20442;-42
2021/04/15 08:55:28;;;;;;;17.87;16.67;;;24.40;83.70;;;;;;6073035;23;21419;-43
2021/04/15 08:58:15;;;;;;;18.27;17.17;;;24.50;83.90;;;;;;6072465;23;20480;-42
2021/04/15 09:00:46;;;;;;;17.80;17.00;;;24.50;83.90;;;;;;6074561;23;20938;-42
2021/04/15 09:03:28;;;;;;;17.23;16.27;;;24.50;84.00;;;;;;6042046;23;20468;-41
2021/04/15 09:06:07;;;;;;;17.17;16.17;;;24.40;84.00;;;;;;6065912;23;20906;-42
2021/04/15 09:08:42;;;;;;;17.67;16.57;;;24.40;84.10;;;;;;6063982;23;20815;-41
2021/04/15 09:11:15;;;;;;;17.40;16.60;;;24.40;84.10;;;;;;6066415;23;20696;-42
2021/04/15 09:13:51;;;;;;;18.57;17.40;;;24.40;84.30;;;;;;6067860;23;20810;-41
2021/04/15 09:16:34;;;;;;;17.17;16.20;;;24.40;84.40;;;;;;6039921;23;20450;-43
2021/04/15 09:19:10;;;;;;;17.33;16.50;;;24.40;84.40;;;;;;6064979;23;20808;-42
2021/04/15 09:21:49;;;;;;;17.03;16.10;;;24.40;84.50;;;;;;6068199;23;20472;-41
2021/04/15 09:24:29;;;;;;;17.60;16.67;;;24.40;84.60;;;;;;6066419;23;20456;-42
2021/04/15 09:27:27;;;;;;;16.93;16.13;;;24.40;84.60;;;;;;6065610;23;20452;-42
2021/04/15 09:30:07;;;;;;;17.20;16.30;;;24.40;84.70;;;;;;6065335;23;20746;-42
2021/04/15 09:32:41;;;;;;;19.20;17.40;;;24.40;84.80;;;;;;6065437;23;20614;-42
2021/04/15 09:35:46;;;;;;;17.40;16.50;;;24.30;84.80;;;;;;6069342;23;20452;-43
2021/04/15 09:38:48;;;;;;;17.23;16.03;;;24.40;84.90;;;;;;6062615;23;20840;-42
2021/04/15 09:41:45;;;;;;;17.30;16.40;;;24.30;84.80;;;;;;6064329;23;20723;-43
2021/04/15 09:44:30;;;;;;;17.07;16.00;;;24.40;84.90;;;;;;6063598;23;20691;-44
2021/04/15 09:47:01;;;;;;;16.40;15.50;;;24.40;85.00;;;;;;6075919;23;20451;-43
2021/04/15 09:49:43;;;;;;;17.30;16.40;;;24.30;84.90;;;;;;6069810;23;21548;-43
2021/04/15 09:52:31;;;;;;;16.30;15.50;;;24.30;85.00;;;;;;6063426;23;20451;-42
2021/04/15 09:55:06;;;;;;;16.80;15.67;;;24.30;85.00;;;;;;6061455;23;20491;-41
2021/04/15 09:57:38;;;;;;;17.43;16.40;;;24.30;85.00;;;;;;6063841;23;20489;-42
2021/04/15 10:00:22;;;;;;;17.17;15.83;;;24.30;85.10;;;;;;6059680;23;20465;-42
2021/04/15 10:03:01;;;;;;;17.47;16.27;;;24.30;85.20;;;;;;6062572;23;20738;-42
2021/04/15 10:06:02;;;;;;;17.40;16.30;;;24.30;85.20;;;;;;6059396;23;20532;-43
2021/04/15 10:08:46;;;;;;;18.93;17.60;;;24.20;85.20;;;;;;6059622;23;20933;-42
2021/04/15 10:11:33;;;;;;;17.67;16.53;;;24.30;85.40;;;;;;6065321;23;20793;-42
2021/04/15 10:14:16;;;;;;;17.50;16.50;;;24.20;85.40;;;;;;6064019;23;20471;-43
2021/04/15 10:16:50;;;;;;;17.80;16.90;;;24.20;85.40;;;;;;6066029;23;20485;-44
2021/04/15 10:19:55;;;;;;;18.47;17.23;;;24.20;85.40;;;;;;6066314;23;20728;-42
2021/04/15 10:22:32;;;;;;;18.20;17.07;;;24.20;85.50;;;;;;6066126;23;20537;-44
2021/04/15 10:25:05;;;;;;;17.70;16.70;;;24.20;85.60;;;;;;6067704;23;20489;-42
2021/04/15 10:27:58;;;;;;;16.83;15.77;;;24.20;85.70;;;;;;6067124;23;20710;-43
2021/04/15 10:31:07;;;;;;;18.10;17.00;;;24.20;85.80;;;;;;6065640;23;20597;-44
2021/04/15 10:33:47;;;;;;;17.03;16.13;;;24.20;85.80;;;;;;6062617;23;20760;-43
2021/04/15 10:36:44;;;;;;;17.20;16.30;;;24.20;85.90;;;;;;6064284;23;20512;-42
2021/04/15 10:39:49;;;;;;;17.57;16.20;;;24.20;86.10;;;;;;6067471;23;20786;-41
2021/04/15 10:43:04;;;;;;;16.17;15.27;;;24.20;86.20;;;;;;6066392;23;20450;-42
2021/04/15 10:46:01;;;;;;;16.23;15.33;;;24.20;86.40;;;;;;5993037;23;20597;-42
2021/04/15 10:48:42;;;;;;;17.63;16.30;;;24.10;86.30;;;;;;6069389;23;20859;-41
2021/04/15 10:51:24;;;;;;;18.27;17.10;;;24.20;86.40;;;;;;6037630;23;20470;-44
2021/04/15 10:53:53;;;;;;;17.07;15.87;;;24.10;86.40;;;;;;6064459;23;20733;-42
2021/04/15 10:56:43;;;;;;;15.97;15.07;;;24.10;86.40;;;;;;6066597;23;20522;-43
2021/04/15 10:59:32;;;;;;;16.50;15.60;;;24.10;86.50;;;;;;6066315;23;20493;-43
2021/04/15 11:02:32;;;;;;;17.90;16.30;;;24.10;86.60;;;;;;6060180;23;20476;-43
2021/04/15 11:05:24;;;;;;;16.73;15.73;;;24.10;86.60;;;;;;6065606;23;20944;-43
2021/04/15 11:07:53;;;;;;;18.60;17.23;;;24.10;86.70;;;;;;6067247;23;20744;-42
2021/04/15 11:10:27;;;;;;;18.03;16.93;;;24.10;86.70;;;;;;6069357;23;20473;-42
2021/04/15 11:13:06;;;;;;;17.23;16.23;;;24.10;86.70;;;;;;6067881;23;20449;-43
2021/04/15 11:15:40;;;;;;;18.87;16.97;;;24.10;86.80;;;;;;6067422;23;20662;-43
2021/04/15 11:18:10;;;;;;;51.87;40.33;;;24.10;86.90;;;;;;6070635;23;20472;-42
2021/04/15 11:20:41;;;;;;;46.70;39.80;;;24.10;86.90;;;;;;6067578;23;20592;-42
2021/04/15 11:23:25;;;;;;;35.73;31.87;;;24.10;86.90;;;;;;6067355;23;20471;-42
2021/04/15 11:25:52;;;;;;;35.67;31.87;;;24.10;86.90;;;;;;6070514;23;20441;-43
2021/04/15 11:28:31;;;;;;;36.77;32.87;;;24.10;86.90;;;;;;6069788;23;20929;-43
2021/04/15 11:31:15;;;;;;;35.73;31.97;;;24.10;87.00;;;;;;6069090;23;20555;-42
2021/04/15 11:33:46;;;;;;;35.77;32.07;;;24.10;86.90;;;;;;6067678;23;20772;-43
2021/04/15 11:36:15;;;;;;;36.07;31.70;;;24.10;87.00;;;;;;6060629;23;20466;-43
2021/04/15 11:38:44;;;;;;;39.53;30.90;;;24.10;87.10;;;;;;6070517;23;20656;-43
2021/04/15 11:41:17;;;;;;;35.70;31.83;;;24.10;87.20;;;;;;6062813;23;20563;-43
2021/04/15 11:43:43;;;;;;;35.33;31.43;;;24.10;87.30;;;;;;6071139;23;20530;-43
2021/04/15 11:46:20;;;;;;;33.77;30.20;;;24.10;87.30;;;;;;6070245;23;20870;-42
2021/04/15 11:49:05;;;;;;;34.27;30.53;;;24.10;87.40;;;;;;6071036;23;20799;-43
2021/04/15 11:51:38;;;;;;;32.03;28.97;;;24.00;87.30;;;;;;6069646;23;20744;-43
2021/04/15 11:54:25;;;;;;;35.27;29.50;;;24.10;87.40;;;;;;6071271;23;20551;-43
2021/04/15 11:56:52;;;;;;;32.57;29.17;;;24.00;87.30;;;;;;6070544;23;20465;-43
2021/04/15 11:59:30;;;;;;;30.23;27.23;;;24.00;87.30;;;;;;6074300;23;20701;-42
2021/04/15 12:02:14;;;;;;;33.17;29.37;;;24.00;87.40;;;;;;6076475;23;20468;-42
2021/04/15 12:04:43;;;;;;;31.07;27.97;;;24.00;87.40;;;;;;6051949;23;20447;-42
2021/04/15 12:07:31;;;;;;;29.93;27.23;;;24.00;87.40;;;;;;6077997;23;20459;-43
2021/04/15 12:09:57;;;;;;;29.43;27.03;;;24.00;87.50;;;;;;6076279;23;20551;-42
2021/04/15 12:12:31;;;;;;;31.03;27.83;;;24.00;87.40;;;;;;6074702;23;20906;-43
2021/04/15 12:14:58;;;;;;;29.23;26.27;;;24.00;87.60;;;;;;6080275;23;20455;-43
2021/04/15 12:17:37;;;;;;;28.60;25.53;;;24.00;87.60;;;;;;6073999;23;20463;-44
2021/04/15 12:20:10;;;;;;;30.07;25.80;;;24.00;87.60;;;;;;6053667;23;20466;-44
2021/04/15 12:22:41;;;;;;;28.00;25.50;;;24.00;87.60;;;;;;6077152;23;20547;-43
2021/04/15 12:25:17;;;;;;;27.33;24.53;;;24.00;87.70;;;;;;6072937;23;20445;-43
2021/04/15 12:27:49;;;;;;;27.43;24.60;;;24.00;87.60;;;;;;6077821;23;20805;-42
2021/04/15 12:30:20;;;;;;;28.57;25.87;;;23.90;87.60;;;;;;6079590;23;20453;-43
2021/04/15 12:32:55;;;;;;;27.60;24.93;;;24.00;87.70;;;;;;6079040;23;20455;-43
2021/04/15 12:35:31;;;;;;;29.07;26.33;;;24.00;87.80;;;;;;6079968;23;21043;-42
2021/04/15 12:38:05;;;;;;;27.23;24.63;;;24.00;87.80;;;;;;6078256;23;20508;-43
2021/04/15 12:40:36;;;;;;;28.07;25.37;;;24.00;87.90;;;;;;6077103;23;21309;-42
2021/04/15 12:43:16;;;;;;;27.10;24.63;;;24.00;88.00;;;;;;6079298;23;20439;-42
2021/04/15 12:45:47;;;;;;;28.77;25.97;;;23.90;88.00;;;;;;6079077;23;20449;-43
2021/04/15 12:48:19;;;;;;;29.00;26.27;;;23.90;88.10;;;;;;6079563;23;20458;-42
2021/04/15 12:50:49;;;;;;;27.00;24.70;;;23.90;88.10;;;;;;6078275;23;20460;-43
2021/04/15 12:53:17;;;;;;;26.60;24.23;;;23.90;88.10;;;;;;6079009;23;20449;-43
2021/04/15 12:55:43;;;;;;;26.47;24.53;;;23.90;88.10;;;;;;6077079;23;20463;-43
2021/04/15 12:58:10;;;;;;;26.90;24.63;;;23.90;88.20;;;;;;6076811;23;20457;-43
2021/04/15 13:00:43;;;;;;;27.50;24.90;;;23.90;88.30;;;;;;6078573;23;20563;-42
2021/04/15 13:03:19;;;;;;;26.83;24.40;;;23.90;88.30;;;;;;6051762;23;20477;-42
2021/04/15 13:06:09;;;;;;;24.87;22.53;;;23.90;88.40;;;;;;6074608;23;20451;-43
2021/04/15 13:08:48;;;;;;;24.67;22.70;;;23.90;88.60;;;;;;6069090;23;20469;-44
2021/04/15 13:11:37;;;;;;;25.57;23.37;;;23.90;88.50;;;;;;6077206;23;20474;-42
2021/04/15 13:14:12;;;;;;;24.90;22.70;;;23.90;88.60;;;;;;6062464;23;20452;-43
2021/04/15 13:16:51;;;;;;;25.47;23.07;;;23.90;88.50;;;;;;6076748;23;20447;-43
2021/04/15 13:19:51;;;;;;;25.47;23.07;;;23.90;88.60;;;;;;6072310;23;20745;-44